createdAt,value
2023-05-11T00:00:27.102Z,13.92
2023-05-11T00:04:36.992Z,13.88
2023-05-11T00:08:45.704Z,13.85
2023-05-11T00:12:44.962Z,13.82
2023-05-11T00:16:47.387Z,13.80
2023-05-11T00:20:49.692Z,13.78
2023-05-11T00:24:59.512Z,13.75
2023-05-11T00:28:59.601Z,13.71
2023-05-11T00:33:09.221Z,13.68
2023-05-11T00:37:09.094Z,13.62
2023-05-11T00:40:58.771Z,13.58
2023-05-11T00:45:08.410Z,13.54
2023-05-11T00:49:18.319Z,13.42
2023-05-11T00:53:28.051Z,13.30
2023-05-11T00:57:10.618Z,13.21
2023-05-11T01:01:20.608Z,13.12
2023-05-11T01:05:30.353Z,13.04
2023-05-11T01:09:45.976Z,12.94
2023-05-11T01:13:58.269Z,12.88
2023-05-11T01:18:14.019Z,12.82
2023-05-11T01:22:23.753Z,12.77
2023-05-11T01:26:51.673Z,12.73
2023-05-11T01:31:06.284Z,12.68
2023-05-11T01:35:18.809Z,12.63
2023-05-11T01:39:28.775Z,12.55
2023-05-11T01:43:32.201Z,12.46
2023-05-11T01:47:40.118Z,12.41
2023-05-11T01:51:52.207Z,12.36
2023-05-11T01:55:30.865Z,12.30
2023-05-11T01:59:30.879Z,12.17
2023-05-11T02:03:40.281Z,12.04
2023-05-11T02:07:49.999Z,11.93
2023-05-11T02:11:48.061Z,11.88
2023-05-11T02:15:57.730Z,11.86
2023-05-11T02:20:07.311Z,11.84
2023-05-11T02:24:16.754Z,11.81
2023-05-11T02:28:09.125Z,11.76
2023-05-11T02:32:18.489Z,11.69
2023-05-11T02:36:28.108Z,11.62
2023-05-11T02:40:40.495Z,11.60
2023-05-11T02:44:48.723Z,11.56
2023-05-11T02:49:00.781Z,11.55
2023-05-11T02:53:01.634Z,11.52
2023-05-11T02:57:04.040Z,11.45
2023-05-11T03:01:13.753Z,11.38
2023-05-11T03:05:12.765Z,11.34
2023-05-11T03:09:22.265Z,11.32
2023-05-11T03:12:58.479Z,11.32
2023-05-11T03:16:51.490Z,11.30
2023-05-11T03:20:44.135Z,11.26
2023-05-11T03:24:43.668Z,11.21
2023-05-11T03:28:39.707Z,11.18
2023-05-11T03:32:44.519Z,11.17
2023-05-11T03:36:43.986Z,11.16
2023-05-11T03:40:35.186Z,11.15
2023-05-11T03:44:44.808Z,11.14
2023-05-11T03:48:20.636Z,11.16
2023-05-11T03:52:13.533Z,11.14
2023-05-11T03:56:22.923Z,11.14
2023-05-11T04:00:33.430Z,11.17
2023-05-11T04:04:28.680Z,11.18
2023-05-11T04:08:18.424Z,11.20
2023-05-11T04:12:20.666Z,11.22
2023-05-11T04:16:08.664Z,11.24
2023-05-11T04:20:08.957Z,11.24
2023-05-11T04:24:11.819Z,11.25
2023-05-11T04:27:29.316Z,11.26
2023-05-11T04:31:38.888Z,11.28
2023-05-11T04:35:23.803Z,11.31
2023-05-11T04:39:06.008Z,11.32
2023-05-11T04:43:07.762Z,11.29
2023-05-11T04:46:43.711Z,11.27
2023-05-11T04:50:34.995Z,11.24
2023-05-11T04:54:36.833Z,11.27
2023-05-11T04:58:19.224Z,11.30
2023-05-11T05:02:28.883Z,11.36
2023-05-11T05:06:05.898Z,11.38
2023-05-11T05:09:54.506Z,11.40
2023-05-11T05:13:39.473Z,11.43
2023-05-11T05:17:24.802Z,11.47
2023-05-11T05:20:49.045Z,11.52
2023-05-11T05:24:18.294Z,11.56
2023-05-11T05:27:21.737Z,11.61
2023-05-11T05:31:07.720Z,11.68
2023-05-11T05:33:59.143Z,11.73
2023-05-11T05:37:31.454Z,11.76
2023-05-11T05:40:52.919Z,11.82
2023-05-11T05:43:38.382Z,11.85
2023-05-11T05:46:50.032Z,11.89
2023-05-11T05:50:26.947Z,11.97
2023-05-11T05:53:41.417Z,12.03
2023-05-11T05:56:32.098Z,12.10
2023-05-11T06:00:08.873Z,12.13
2023-05-11T06:03:46.566Z,12.14
2023-05-11T06:06:57.964Z,12.17
2023-05-11T06:10:12.880Z,12.19
2023-05-11T06:13:42.570Z,12.23
2023-05-11T06:17:28.501Z,12.27
2023-05-11T06:20:58.623Z,12.31
2023-05-11T06:24:48.220Z,12.36
2023-05-11T06:28:36.604Z,12.42
2023-05-11T06:32:21.209Z,12.49
2023-05-11T06:36:10.619Z,12.53
2023-05-11T06:40:21.233Z,12.62
2023-05-11T06:44:13.259Z,12.71
2023-05-11T06:47:42.142Z,12.76
2023-05-11T06:51:25.219Z,12.83
2023-05-11T06:55:07.373Z,12.91
2023-05-11T06:58:51.674Z,12.98
2023-05-11T07:02:34.478Z,13.05
2023-05-11T07:05:46.017Z,13.10
2023-05-11T07:09:38.390Z,13.18
2023-05-11T07:13:48.898Z,13.30
2023-05-11T07:17:44.029Z,13.40
2023-05-11T07:21:42.733Z,13.50
2023-05-11T07:25:25.742Z,13.58
2023-05-11T07:29:18.433Z,13.66
2023-05-11T07:32:55.347Z,13.72
2023-05-11T07:35:58.076Z,13.80
2023-05-11T07:39:37.384Z,13.87
2023-05-11T07:43:38.010Z,13.93
2023-05-11T07:47:29.046Z,14.02
2023-05-11T07:51:14.204Z,14.11
2023-05-11T07:54:02.606Z,14.20
2023-05-11T07:56:51.308Z,14.28
2023-05-11T08:00:33.475Z,14.36
2023-05-11T08:04:25.367Z,14.47
2023-05-11T08:07:50.774Z,14.57
2023-05-11T08:11:01.545Z,14.67
2023-05-11T08:14:14.681Z,14.77
2023-05-11T08:17:53.098Z,14.83
2023-05-11T08:21:42.573Z,14.91
2023-05-11T08:24:42.008Z,14.99
2023-05-11T08:28:18.769Z,15.03
2023-05-11T08:32:06.141Z,15.11
2023-05-11T08:35:47.028Z,15.22
2023-05-11T08:39:43.287Z,15.30
2023-05-11T08:43:17.596Z,15.37
2023-05-11T08:47:21.875Z,15.47
2023-05-11T08:50:37.238Z,15.55
2023-05-11T08:54:01.763Z,15.60
2023-05-11T08:57:51.279Z,15.69
2023-05-11T09:01:22.432Z,15.79
2023-05-11T09:05:01.835Z,15.88
2023-05-11T09:08:40.986Z,15.95
2023-05-11T09:12:41.455Z,16.02
2023-05-11T09:16:37.309Z,16.11
2023-05-11T09:20:35.182Z,16.19
2023-05-11T09:23:50.358Z,16.24
2023-05-11T09:27:10.980Z,16.26
2023-05-11T09:30:43.749Z,16.30
2023-05-11T09:34:53.259Z,16.35
2023-05-11T09:38:24.881Z,16.41
2023-05-11T09:41:40.836Z,16.47
2023-05-11T09:44:42.343Z,16.54
2023-05-11T09:47:50.163Z,16.59
2023-05-11T09:51:04.736Z,16.62
2023-05-11T09:54:40.485Z,16.68
2023-05-11T09:58:23.443Z,16.71
2023-05-11T10:01:10.299Z,16.76
2023-05-11T10:04:00.262Z,16.78
2023-05-11T10:07:48.466Z,16.80
2023-05-11T10:11:57.684Z,16.86
2023-05-11T10:15:35.082Z,16.91
2023-05-11T10:18:59.846Z,16.94
2023-05-11T10:22:32.606Z,16.98
2023-05-11T10:26:15.192Z,17.02
2023-05-11T10:30:14.554Z,17.07
2023-05-11T10:33:57.827Z,17.10
2023-05-11T10:37:01.400Z,17.16
2023-05-11T10:39:56.761Z,17.21
2023-05-11T10:43:55.844Z,17.28
2023-05-11T10:47:35.246Z,17.30
2023-05-11T10:51:57.855Z,17.34
2023-05-11T10:55:46.259Z,17.36
2023-05-11T10:59:32.888Z,17.44
2023-05-11T11:02:45.367Z,17.52
2023-05-11T11:06:16.324Z,17.55
2023-05-11T11:10:21.803Z,17.56
2023-05-11T11:14:14.516Z,17.59
2023-05-11T11:17:54.057Z,17.64
2023-05-11T11:21:50.929Z,17.71
2023-05-11T11:25:58.883Z,17.80
2023-05-11T11:29:44.130Z,17.91
2023-05-11T11:33:53.776Z,17.97
2023-05-11T11:37:41.195Z,18.03
2023-05-11T11:41:11.953Z,18.03
2023-05-11T11:44:19.265Z,18.08
2023-05-11T11:47:58.190Z,18.11
2023-05-11T11:51:15.036Z,18.13
2023-05-11T11:55:35.974Z,18.17
2023-05-11T11:59:43.874Z,18.22
2023-05-11T12:03:15.096Z,18.31
2023-05-11T12:06:02.825Z,18.37
2023-05-11T12:09:22.319Z,18.42
2023-05-11T12:12:59.861Z,18.48
2023-05-11T12:15:49.978Z,18.55
2023-05-11T12:19:12.491Z,18.62
2023-05-11T12:23:04.208Z,18.66
2023-05-11T12:26:30.346Z,18.65
2023-05-11T12:29:40.921Z,18.67
2023-05-11T12:32:13.141Z,18.72
2023-05-11T12:34:57.665Z,18.74
2023-05-11T12:38:05.673Z,18.79
2023-05-11T12:41:16.184Z,18.82
2023-05-11T12:44:31.015Z,18.91
2023-05-11T12:47:41.517Z,19.00
2023-05-11T12:51:14.306Z,19.07
2023-05-11T12:54:05.198Z,19.08
2023-05-11T12:57:32.951Z,19.08
2023-05-11T13:00:59.979Z,19.05
2023-05-11T13:03:46.346Z,19.06
2023-05-11T13:06:20.229Z,19.11
2023-05-11T13:09:24.341Z,19.14
2023-05-11T13:12:17.553Z,19.11
2023-05-11T13:15:39.958Z,19.07
2023-05-11T13:19:37.551Z,19.11
2023-05-11T13:22:19.443Z,19.11
2023-05-11T13:25:09.357Z,19.11
2023-05-11T13:28:38.350Z,19.11
2023-05-11T13:31:53.564Z,19.10
2023-05-11T13:34:47.271Z,19.14
2023-05-11T13:37:35.931Z,19.13
2023-05-11T13:40:25.408Z,19.17
2023-05-11T13:43:01.889Z,19.24
2023-05-11T13:45:42.832Z,19.29
2023-05-11T13:48:46.141Z,19.35
2023-05-11T13:52:11.769Z,19.41
2023-05-11T13:54:46.130Z,19.42
2023-05-11T13:57:35.481Z,19.45
2023-05-11T14:00:39.237Z,19.53
2023-05-11T14:03:12.717Z,19.58
2023-05-11T14:06:04.780Z,19.68
2023-05-11T14:08:38.179Z,19.75
2023-05-11T14:11:39.309Z,19.86
2023-05-11T14:14:36.466Z,19.94
2023-05-11T14:17:18.830Z,20.07
2023-05-11T14:19:49.867Z,20.17
2023-05-11T14:22:18.313Z,20.27
2023-05-11T14:24:50.063Z,20.35
2023-05-11T14:27:19.320Z,20.42
2023-05-11T14:29:47.826Z,20.50
2023-05-11T14:32:16.198Z,20.59
2023-05-11T14:34:44.765Z,20.68
2023-05-11T14:37:16.133Z,20.74
2023-05-11T14:39:50.636Z,20.82
2023-05-11T14:42:19.183Z,20.93
2023-05-11T14:45:17.992Z,21.02
2023-05-11T14:48:19.826Z,21.14
2023-05-11T14:51:26.387Z,21.24
2023-05-11T14:54:20.664Z,21.27
2023-05-11T14:57:49.120Z,21.37
2023-05-11T15:01:31.361Z,21.51
2023-05-11T15:04:52.029Z,21.80
2023-05-11T15:08:18.256Z,21.90
2023-05-11T15:11:33.731Z,21.90
2023-05-11T15:14:26.085Z,21.95
2023-05-11T15:17:00.630Z,22.02
2023-05-11T15:19:52.043Z,22.04
2023-05-11T15:22:29.869Z,22.06
2023-05-11T15:25:26.242Z,22.14
2023-05-11T15:28:11.270Z,22.19
2023-05-11T15:30:45.182Z,22.22
2023-05-11T15:33:22.293Z,22.26
2023-05-11T15:36:32.413Z,22.38
2023-05-11T15:39:06.585Z,22.51
2023-05-11T15:41:50.200Z,22.58
2023-05-11T15:44:26.406Z,22.52
2023-05-11T15:47:01.752Z,22.48
2023-05-11T15:49:36.116Z,22.45
2023-05-11T15:52:56.401Z,22.46
2023-05-11T15:55:33.095Z,22.41
2023-05-11T15:58:10.617Z,22.40
2023-05-11T16:01:17.391Z,22.43
2023-05-11T16:04:29.131Z,22.43
2023-05-11T16:07:32.867Z,22.44
2023-05-11T16:10:29.248Z,22.39
2023-05-11T16:13:28.156Z,22.37
2023-05-11T16:17:06.239Z,22.40
2023-05-11T16:20:27.213Z,22.32
2023-05-11T16:23:15.584Z,22.15
2023-05-11T16:26:16.635Z,22.09
2023-05-11T16:30:24.489Z,22.00
2023-05-11T16:34:05.789Z,21.96
2023-05-11T16:37:58.088Z,21.87
2023-05-11T16:41:54.192Z,21.77
2023-05-11T16:45:41.568Z,21.73
2023-05-11T16:51:06.196Z,21.71
2023-05-11T16:54:00.049Z,21.71
2023-05-11T16:57:25.254Z,21.80
2023-05-11T17:00:06.562Z,21.92
2023-05-11T17:03:41.599Z,22.01
2023-05-11T17:07:17.993Z,22.00
2023-05-11T17:11:10.027Z,22.05
2023-05-11T17:14:14.404Z,22.09
2023-05-11T17:17:25.013Z,22.17
2023-05-11T17:21:21.814Z,22.25
2023-05-11T17:24:58.257Z,22.33
2023-05-11T17:28:31.246Z,22.28
2023-05-11T17:31:52.283Z,22.19
2023-05-11T17:34:44.648Z,22.14
2023-05-11T17:37:46.368Z,22.11
2023-05-11T17:41:18.097Z,22.06
2023-05-11T17:44:51.883Z,21.91
2023-05-11T17:47:42.707Z,21.83
2023-05-11T17:51:23.325Z,21.67
2023-05-11T17:55:17.635Z,21.48
2023-05-11T17:58:48.723Z,21.34
2023-05-11T18:01:54.151Z,21.24
2023-05-11T18:05:05.087Z,21.14
2023-05-11T18:08:18.908Z,21.00
2023-05-11T18:11:24.549Z,20.85
2023-05-11T18:14:39.532Z,20.56
2023-05-11T18:18:48.965Z,20.29
2023-05-11T18:22:20.509Z,20.08
2023-05-11T18:26:05.149Z,19.84
2023-05-11T18:29:41.030Z,19.60
2023-05-11T18:32:48.458Z,19.35
2023-05-11T18:36:16.089Z,19.18
2023-05-11T18:39:30.673Z,19.03
2023-05-11T18:43:13.948Z,18.83
2023-05-11T18:47:14.400Z,18.62
2023-05-11T18:51:12.887Z,18.44
2023-05-11T18:54:43.509Z,18.29
2023-05-11T18:58:14.909Z,18.18
2023-05-11T19:02:24.435Z,18.00
2023-05-11T19:06:34.169Z,17.80
2023-05-11T19:10:24.920Z,17.60
2023-05-11T19:14:17.284Z,17.41
2023-05-11T19:17:58.347Z,17.18
2023-05-11T19:21:50.986Z,16.98
2023-05-11T19:25:29.045Z,16.82
2023-05-11T19:29:30.603Z,16.69
2023-05-11T19:33:22.735Z,16.56
2023-05-11T19:37:12.034Z,16.42
2023-05-11T19:41:01.510Z,16.29
2023-05-11T19:44:48.556Z,16.19
2023-05-11T19:48:59.945Z,16.07
2023-05-11T19:53:00.876Z,15.91
2023-05-11T19:56:52.859Z,15.76
2023-05-11T20:00:26.461Z,15.64
2023-05-11T20:04:06.880Z,15.56
2023-05-11T20:07:19.387Z,15.48
2023-05-11T20:11:27.544Z,15.40
2023-05-11T20:15:09.824Z,15.34
2023-05-11T20:19:12.378Z,15.27
2023-05-11T20:23:04.918Z,15.18
2023-05-11T20:25:48.385Z,15.11
2023-05-11T20:29:19.246Z,15.07
2023-05-11T20:37:28.846Z,14.91
2023-05-11T20:41:38.471Z,14.82
2023-05-11T20:45:48.153Z,14.69
2023-05-11T20:49:57.348Z,14.62
2023-05-11T20:54:06.922Z,14.52
2023-05-11T20:58:09.071Z,14.43
2023-05-11T21:02:18.649Z,14.33
2023-05-11T21:05:33.300Z,14.26
2023-05-11T21:09:07.851Z,14.24
2023-05-11T21:13:09.967Z,14.24
2023-05-11T21:17:19.467Z,14.21
2023-05-11T21:21:28.879Z,14.18
2023-05-11T21:25:04.391Z,14.16
2023-05-11T21:29:05.173Z,14.17
2023-05-11T21:32:57.554Z,14.21
2023-05-11T21:36:56.750Z,14.18
2023-05-11T21:40:52.385Z,14.11
2023-05-11T21:45:01.841Z,14.03
2023-05-11T21:48:46.607Z,14.00
2023-05-11T21:51:55.918Z,13.99
2023-05-11T21:55:47.604Z,13.99
2023-05-11T21:59:27.592Z,13.99
2023-05-11T22:03:37.374Z,13.98
2023-05-11T22:07:25.788Z,13.93
2023-05-11T22:11:28.134Z,13.89
2023-05-11T22:15:28.318Z,13.83
2023-05-11T22:19:37.426Z,13.75
2023-05-11T22:23:26.594Z,13.71
2023-05-11T22:27:29.811Z,13.69
2023-05-11T22:31:29.414Z,13.65
2023-05-11T22:35:38.650Z,13.60
2023-05-11T22:39:48.313Z,13.57
2023-05-11T22:43:57.722Z,13.59
2023-05-11T22:48:06.015Z,13.62
2023-05-11T22:51:58.219Z,13.64
2023-05-11T22:55:35.250Z,13.65
2023-05-11T22:59:44.838Z,13.66
2023-05-11T23:03:54.413Z,13.69
2023-05-11T23:07:15.882Z,13.71
2023-05-11T23:11:23.935Z,13.70
2023-05-11T23:15:32.417Z,13.67
2023-05-11T23:19:06.413Z,13.62
2023-05-11T23:23:16.014Z,13.60
2023-05-11T23:27:02.228Z,13.58
2023-05-11T23:30:50.588Z,13.60
2023-05-11T23:34:50.000Z,13.64
2023-05-11T23:38:59.598Z,13.57
2023-05-11T23:43:09.511Z,13.47
2023-05-11T23:47:19.109Z,13.38
2023-05-11T23:51:28.614Z,13.28
2023-05-11T23:55:30.647Z,13.16
2023-05-11T23:59:40.256Z,13.14
